createdAt,value
2023-04-09T00:01:32.907Z,7.96
2023-04-09T00:04:03.965Z,8.09
2023-04-09T00:06:32.141Z,7.68
2023-04-09T00:09:02.240Z,7.55
2023-04-09T00:11:30.291Z,7.77
2023-04-09T00:13:58.508Z,7.64
2023-04-09T00:16:26.651Z,7.48
2023-04-09T00:18:56.305Z,7.41
2023-04-09T00:21:24.317Z,7.37
2023-04-09T00:23:52.386Z,7.00
2023-04-09T00:26:21.410Z,6.70
2023-04-09T00:28:49.974Z,6.75
2023-04-09T00:31:20.130Z,6.68
2023-04-09T00:33:48.884Z,6.42
2023-04-09T00:36:18.388Z,6.54
2023-04-09T00:38:47.289Z,6.90
2023-04-09T00:41:15.268Z,6.84
2023-04-09T00:43:43.270Z,6.83
2023-04-09T00:46:11.356Z,6.80
2023-04-09T00:48:39.922Z,6.64
2023-04-09T00:51:09.011Z,6.30
2023-04-09T00:53:38.354Z,6.27
2023-04-09T00:56:07.032Z,6.55
2023-04-09T00:58:35.104Z,6.66
2023-04-09T01:01:05.592Z,7.00
2023-04-09T01:03:36.798Z,7.20
2023-04-09T01:06:07.730Z,7.16
2023-04-09T01:08:42.684Z,6.98
2023-04-09T01:11:16.449Z,6.51
2023-04-09T01:13:49.248Z,5.70
2023-04-09T01:16:17.945Z,5.64
2023-04-09T01:18:51.507Z,5.93
2023-04-09T01:21:21.539Z,5.55
2023-04-09T01:23:57.459Z,5.61
2023-04-09T01:26:35.993Z,6.02
2023-04-09T01:29:06.920Z,5.87
2023-04-09T01:31:36.674Z,5.50
2023-04-09T01:34:06.030Z,5.80
2023-04-09T01:36:35.028Z,5.73
2023-04-09T01:39:03.504Z,5.92
2023-04-09T01:41:33.443Z,5.80
2023-04-09T01:44:02.640Z,5.85
2023-04-09T01:46:32.856Z,6.37
2023-04-09T01:49:01.380Z,6.13
2023-04-09T01:51:29.957Z,6.38
2023-04-09T01:53:57.984Z,6.27
2023-04-09T01:56:26.288Z,6.15
2023-04-09T01:58:54.542Z,6.13
2023-04-09T02:01:28.381Z,6.05
2023-04-09T02:04:02.183Z,6.31
2023-04-09T02:06:35.726Z,6.25
2023-04-09T02:09:05.732Z,6.26
2023-04-09T02:11:34.659Z,5.99
2023-04-09T02:14:03.686Z,6.04
2023-04-09T02:16:32.824Z,6.13
2023-04-09T02:19:02.157Z,6.35
2023-04-09T02:21:31.709Z,6.52
2023-04-09T02:24:00.040Z,6.14
2023-04-09T02:26:28.125Z,6.11
2023-04-09T02:28:59.889Z,6.29
2023-04-09T02:31:27.929Z,5.96
2023-04-09T02:33:56.191Z,6.25
2023-04-09T02:36:26.420Z,6.19
2023-04-09T02:38:54.515Z,6.05
2023-04-09T02:41:22.579Z,5.66
2023-04-09T02:43:50.563Z,5.95
2023-04-09T02:46:18.721Z,6.09
2023-04-09T02:48:46.924Z,5.58
2023-04-09T02:51:15.044Z,5.65
2023-04-09T02:53:45.548Z,5.91
2023-04-09T02:56:13.600Z,5.92
2023-04-09T02:58:41.769Z,6.08
2023-04-09T03:01:09.901Z,6.05
2023-04-09T03:03:40.064Z,6.03
2023-04-09T03:06:08.263Z,6.16
2023-04-09T03:08:36.334Z,6.23
2023-04-09T03:11:05.790Z,6.16
2023-04-09T03:13:33.911Z,6.22
2023-04-09T03:16:02.126Z,6.05
2023-04-09T03:18:30.432Z,5.70
2023-04-09T03:20:58.429Z,5.73
2023-04-09T03:23:34.787Z,6.03
2023-04-09T03:26:03.590Z,6.14
2023-04-09T03:28:37.188Z,6.16
2023-04-09T03:31:05.401Z,6.40
2023-04-09T03:33:37.324Z,6.14
2023-04-09T03:36:05.794Z,6.33
2023-04-09T03:39:12.053Z,6.00
2023-04-09T03:41:43.765Z,5.91
2023-04-09T03:44:17.096Z,5.67
2023-04-09T03:47:03.228Z,5.75
2023-04-09T03:49:31.254Z,5.28
2023-04-09T03:52:08.189Z,5.36
2023-04-09T03:54:39.749Z,5.54
2023-04-09T03:57:14.100Z,5.73
2023-04-09T03:59:46.246Z,5.41
2023-04-09T04:02:17.702Z,5.09
2023-04-09T04:04:50.444Z,5.28
2023-04-09T04:07:18.733Z,5.43
2023-04-09T04:09:51.584Z,5.40
2023-04-09T04:12:20.561Z,5.55
2023-04-09T04:15:09.948Z,5.68
2023-04-09T04:17:51.866Z,5.47
2023-04-09T04:20:41.147Z,5.84
2023-04-09T04:23:13.422Z,6.06
2023-04-09T04:25:54.259Z,5.71
2023-04-09T04:28:29.241Z,5.94
2023-04-09T04:30:59.309Z,6.07
2023-04-09T04:33:29.871Z,6.01
2023-04-09T04:36:06.312Z,5.85
2023-04-09T04:38:38.903Z,5.85
2023-04-09T04:41:12.952Z,5.76
2023-04-09T04:43:47.573Z,5.49
2023-04-09T04:46:22.845Z,5.51
2023-04-09T04:48:51.229Z,5.76
2023-04-09T04:51:19.546Z,5.52
2023-04-09T04:53:59.555Z,5.73
2023-04-09T04:56:28.274Z,5.40
2023-04-09T04:59:03.577Z,5.83
2023-04-09T05:01:44.426Z,6.00
2023-04-09T05:04:14.547Z,5.84
2023-04-09T05:06:42.692Z,5.70
2023-04-09T05:09:14.960Z,5.41
2023-04-09T05:11:55.018Z,5.29
2023-04-09T05:14:24.186Z,5.33
2023-04-09T05:16:53.832Z,5.37
2023-04-09T05:19:26.282Z,5.28
2023-04-09T05:22:00.259Z,5.61
2023-04-09T05:24:28.372Z,5.28
2023-04-09T05:26:56.380Z,5.29
2023-04-09T05:29:24.900Z,5.72
2023-04-09T05:31:54.278Z,5.46
2023-04-09T05:34:28.537Z,5.63
2023-04-09T05:36:58.004Z,5.81
2023-04-09T05:39:27.030Z,5.84
2023-04-09T05:41:56.266Z,5.92
2023-04-09T05:44:37.536Z,6.00
2023-04-09T05:47:14.842Z,6.40
2023-04-09T05:49:49.077Z,6.08
2023-04-09T05:52:19.756Z,6.11
2023-04-09T05:54:47.958Z,6.35
2023-04-09T05:57:20.846Z,6.35
2023-04-09T05:59:56.113Z,6.26
2023-04-09T06:02:26.538Z,6.43
2023-04-09T06:04:55.628Z,6.62
2023-04-09T06:07:23.745Z,6.50
2023-04-09T06:09:51.817Z,6.58
2023-04-09T06:12:22.213Z,6.91
2023-04-09T06:14:50.281Z,7.00
2023-04-09T06:17:18.347Z,7.12
2023-04-09T06:19:47.743Z,7.57
2023-04-09T06:22:15.797Z,7.74
2023-04-09T06:24:43.862Z,8.21
2023-04-09T06:27:12.075Z,7.53
2023-04-09T06:29:40.353Z,7.57
2023-04-09T06:32:08.391Z,8.25
2023-04-09T06:34:36.433Z,8.66
2023-04-09T06:37:07.488Z,9.17
2023-04-09T06:39:35.475Z,9.34
2023-04-09T06:42:05.901Z,9.66
2023-04-09T06:44:40.762Z,8.25
2023-04-09T06:47:09.344Z,7.80
2023-04-09T06:49:39.768Z,8.20
2023-04-09T06:52:09.157Z,8.03
2023-04-09T06:54:37.210Z,7.82
2023-04-09T06:57:05.311Z,8.53
2023-04-09T06:59:33.781Z,8.92
2023-04-09T07:02:01.993Z,8.44
2023-04-09T07:04:30.218Z,8.79
2023-04-09T07:06:59.270Z,9.02
2023-04-09T07:09:28.690Z,9.08
2023-04-09T07:11:59.036Z,8.82
2023-04-09T07:14:27.231Z,8.53
2023-04-09T07:16:57.842Z,8.52
2023-04-09T07:19:25.974Z,8.80
2023-04-09T07:21:54.072Z,9.46
2023-04-09T07:24:24.359Z,8.93
2023-04-09T07:26:53.910Z,9.15
2023-04-09T07:29:22.364Z,9.69
2023-04-09T07:31:50.559Z,8.94
2023-04-09T07:34:18.709Z,9.87
2023-04-09T07:36:46.778Z,9.19
2023-04-09T07:39:14.872Z,9.65
2023-04-09T07:41:43.033Z,10.03
2023-04-09T07:44:13.658Z,9.47
2023-04-09T07:46:44.720Z,10.49
2023-04-09T07:49:12.780Z,9.41
2023-04-09T07:51:41.084Z,9.63
2023-04-09T07:54:09.196Z,10.08
2023-04-09T07:56:37.269Z,9.56
2023-04-09T07:59:05.678Z,10.73
2023-04-09T08:01:35.145Z,10.22
2023-04-09T08:04:03.669Z,10.64
2023-04-09T08:06:31.930Z,10.40
2023-04-09T08:08:59.999Z,10.33
2023-04-09T08:11:28.170Z,10.50
2023-04-09T08:13:57.152Z,11.06
2023-04-09T08:16:25.289Z,10.93
2023-04-09T08:18:55.191Z,10.97
2023-04-09T08:21:23.421Z,10.20
2023-04-09T08:23:51.739Z,10.65
2023-04-09T08:26:22.825Z,11.25
2023-04-09T08:28:52.267Z,10.42
2023-04-09T08:31:20.655Z,10.30
2023-04-09T08:33:48.798Z,10.65
2023-04-09T08:36:20.500Z,11.01
2023-04-09T08:38:49.261Z,10.44
2023-04-09T08:41:20.858Z,10.53
2023-04-09T08:43:57.759Z,10.39
2023-04-09T08:46:27.250Z,10.58
2023-04-09T08:48:55.892Z,10.61
2023-04-09T08:51:25.649Z,11.21
2023-04-09T08:53:56.502Z,11.02
2023-04-09T08:56:24.794Z,10.68
2023-04-09T08:58:53.548Z,11.73
2023-04-09T09:01:22.966Z,11.40
2023-04-09T09:03:55.895Z,12.09
2023-04-09T09:06:27.055Z,12.26
2023-04-09T09:09:04.586Z,12.12
2023-04-09T09:11:32.650Z,12.25
2023-04-09T09:14:04.642Z,11.87
2023-04-09T09:16:35.840Z,11.57
2023-04-09T09:19:04.283Z,11.73
2023-04-09T09:21:34.779Z,12.11
2023-04-09T09:24:03.417Z,11.83
2023-04-09T09:26:32.011Z,12.11
2023-04-09T09:29:01.506Z,11.81
2023-04-09T09:31:32.152Z,12.02
2023-04-09T09:34:09.754Z,12.52
2023-04-09T09:36:39.141Z,12.65
2023-04-09T09:39:10.116Z,13.18
2023-04-09T09:41:38.711Z,12.58
2023-04-09T09:44:07.988Z,12.34
2023-04-09T09:46:36.894Z,13.80
2023-04-09T09:49:08.054Z,13.05
2023-04-09T09:51:37.661Z,12.97
2023-04-09T09:54:08.232Z,13.00
2023-04-09T09:56:37.069Z,13.60
2023-04-09T09:59:08.576Z,13.60
2023-04-09T10:01:37.288Z,13.37
2023-04-09T10:04:07.088Z,14.13
2023-04-09T10:06:38.702Z,13.73
2023-04-09T10:09:10.893Z,13.87
2023-04-09T10:11:39.446Z,12.42
2023-04-09T10:14:07.567Z,12.55
2023-04-09T10:16:36.109Z,12.48
2023-04-09T10:19:04.263Z,12.67
2023-04-09T10:21:39.871Z,13.21
2023-04-09T10:24:10.856Z,12.71
2023-04-09T10:26:41.690Z,13.18
2023-04-09T10:29:13.744Z,13.35
2023-04-09T10:32:02.577Z,12.74
2023-04-09T10:34:30.672Z,13.72
2023-04-09T10:36:59.755Z,14.23
2023-04-09T10:39:33.416Z,14.89
2023-04-09T10:42:02.677Z,14.61
2023-04-09T10:44:32.495Z,14.99
2023-04-09T10:47:04.254Z,15.15
2023-04-09T10:49:37.143Z,14.16
2023-04-09T10:52:06.289Z,13.97
2023-04-09T10:54:43.866Z,14.32
2023-04-09T10:57:18.973Z,14.44
2023-04-09T10:59:47.760Z,14.39
2023-04-09T11:02:33.057Z,14.59
2023-04-09T11:05:08.303Z,15.66
2023-04-09T11:07:41.706Z,14.12
2023-04-09T11:10:11.531Z,13.17
2023-04-09T11:12:39.531Z,14.74
2023-04-09T11:15:16.384Z,15.17
2023-04-09T11:17:44.801Z,15.20
2023-04-09T11:20:15.705Z,14.36
2023-04-09T11:22:44.114Z,14.17
2023-04-09T11:25:18.562Z,13.92
2023-04-09T11:27:47.160Z,14.33
2023-04-09T11:30:15.383Z,15.30
2023-04-09T11:32:43.664Z,15.52
2023-04-09T11:35:13.733Z,14.90
2023-04-09T11:37:42.197Z,15.81
2023-04-09T11:40:17.787Z,14.37
2023-04-09T11:42:46.601Z,15.01
2023-04-09T11:45:16.191Z,14.19
2023-04-09T11:47:47.251Z,15.04
2023-04-09T11:50:16.058Z,14.74
2023-04-09T11:52:44.612Z,15.10
2023-04-09T11:55:12.806Z,14.89
2023-04-09T11:57:43.848Z,13.92
2023-04-09T12:00:16.696Z,14.13
2023-04-09T12:02:46.393Z,14.84
2023-04-09T12:05:22.639Z,14.43
2023-04-09T12:07:56.203Z,15.21
2023-04-09T12:10:28.120Z,14.76
2023-04-09T12:13:02.285Z,14.48
2023-04-09T12:15:32.856Z,14.27
2023-04-09T12:18:01.267Z,15.71
2023-04-09T12:20:30.523Z,15.28
2023-04-09T12:23:00.109Z,14.84
2023-04-09T12:25:28.657Z,15.68
2023-04-09T12:27:58.725Z,14.85
2023-04-09T12:30:27.289Z,15.81
2023-04-09T12:32:55.865Z,16.05
2023-04-09T12:35:24.131Z,16.91
2023-04-09T12:37:52.573Z,16.36
2023-04-09T12:40:23.803Z,16.83
2023-04-09T12:42:52.090Z,16.71
2023-04-09T12:45:22.651Z,15.28
2023-04-09T12:47:51.158Z,15.29
2023-04-09T12:50:19.328Z,15.05
2023-04-09T12:52:47.406Z,15.32
2023-04-09T12:55:16.062Z,14.78
2023-04-09T12:57:44.876Z,15.01
2023-04-09T13:00:13.704Z,14.82
2023-04-09T13:02:43.241Z,15.45
2023-04-09T13:05:11.445Z,15.88
2023-04-09T13:07:41.493Z,16.50
2023-04-09T13:10:11.151Z,15.82
2023-04-09T13:12:39.238Z,15.97
2023-04-09T13:15:07.878Z,15.75
2023-04-09T13:17:35.979Z,14.87
2023-04-09T13:20:06.062Z,15.15
2023-04-09T13:22:34.118Z,15.23
2023-04-09T13:25:02.240Z,14.69
2023-04-09T13:27:30.369Z,14.61
2023-04-09T13:29:58.392Z,14.40
2023-04-09T13:32:26.720Z,15.05
2023-04-09T13:34:55.764Z,15.01
2023-04-09T13:37:25.952Z,14.14
2023-04-09T13:39:54.010Z,14.38
2023-04-09T13:42:22.137Z,14.29
2023-04-09T13:44:50.180Z,14.35
2023-04-09T13:47:18.365Z,15.19
2023-04-09T13:49:51.452Z,14.94
2023-04-09T13:52:19.523Z,14.44
2023-04-09T13:54:49.405Z,14.56
2023-04-09T13:57:17.767Z,15.18
2023-04-09T13:59:48.100Z,14.83
2023-04-09T14:02:18.083Z,15.10
2023-04-09T14:04:46.503Z,15.20
2023-04-09T14:07:14.617Z,14.69
2023-04-09T14:09:45.093Z,14.61
2023-04-09T14:12:14.477Z,15.70
2023-04-09T14:14:42.531Z,15.29
2023-04-09T14:17:10.582Z,15.47
2023-04-09T14:19:39.247Z,16.25
2023-04-09T14:22:08.824Z,15.92
2023-04-09T14:24:39.923Z,15.10
2023-04-09T14:27:08.641Z,15.77
2023-04-09T14:29:40.127Z,16.05
2023-04-09T14:32:08.213Z,16.02
2023-04-09T14:34:36.663Z,16.05
2023-04-09T14:37:04.730Z,16.54
2023-04-09T14:39:32.804Z,16.99
2023-04-09T14:42:01.036Z,15.63
2023-04-09T14:44:29.234Z,16.10
2023-04-09T14:47:00.016Z,16.17
2023-04-09T14:49:28.225Z,15.75
2023-04-09T14:51:59.441Z,15.29
2023-04-09T14:54:28.918Z,16.55
2023-04-09T14:56:58.228Z,16.60
2023-04-09T14:59:26.976Z,17.04
2023-04-09T15:01:55.107Z,16.18
2023-04-09T15:04:24.677Z,16.15
2023-04-09T15:06:52.806Z,16.34
2023-04-09T15:09:20.917Z,16.13
2023-04-09T15:11:48.929Z,16.18
2023-04-09T15:14:17.027Z,16.30
2023-04-09T15:16:45.145Z,15.62
2023-04-09T15:19:15.676Z,15.63
2023-04-09T15:21:45.186Z,16.05
2023-04-09T15:24:13.249Z,15.68
2023-04-09T15:26:41.276Z,15.73
2023-04-09T15:29:09.400Z,15.25
2023-04-09T15:31:41.435Z,15.28
2023-04-09T15:34:09.763Z,15.38
2023-04-09T15:36:37.805Z,15.44
2023-04-09T15:39:07.294Z,15.58
2023-04-09T15:41:35.304Z,15.80
2023-04-09T15:44:03.316Z,15.48
2023-04-09T15:46:33.401Z,15.23
2023-04-09T15:49:01.630Z,15.06
2023-04-09T15:51:29.590Z,15.23
2023-04-09T15:53:57.590Z,15.55
2023-04-09T15:56:27.012Z,15.70
2023-04-09T15:58:55.295Z,16.17
2023-04-09T16:01:23.593Z,16.11
2023-04-09T16:03:52.257Z,16.01
2023-04-09T16:06:21.156Z,15.47
2023-04-09T16:08:49.310Z,16.10
2023-04-09T16:11:17.664Z,16.31
2023-04-09T16:13:49.323Z,15.97
2023-04-09T16:16:17.618Z,16.03
2023-04-09T16:18:45.690Z,15.39
2023-04-09T16:21:13.756Z,15.36
2023-04-09T16:23:41.982Z,15.59
2023-04-09T16:26:11.096Z,15.78
2023-04-09T16:28:41.265Z,15.66
2023-04-09T16:31:10.598Z,15.66
2023-04-09T16:33:38.689Z,15.78
2023-04-09T16:36:07.152Z,15.57
2023-04-09T16:38:35.257Z,16.09
2023-04-09T16:41:03.326Z,15.55
2023-04-09T16:43:31.473Z,15.76
2023-04-09T16:45:59.617Z,15.41
2023-04-09T16:48:29.080Z,15.50
2023-04-09T16:50:57.140Z,15.37
2023-04-09T16:53:25.180Z,15.08
2023-04-09T16:55:53.420Z,15.08
2023-04-09T16:58:23.749Z,15.57
2023-04-09T17:00:52.210Z,15.58
2023-04-09T17:03:20.443Z,14.83
2023-04-09T17:05:49.849Z,14.89
2023-04-09T17:08:18.225Z,14.88
2023-04-09T17:10:46.255Z,14.59
2023-04-09T17:13:14.492Z,14.33
2023-04-09T17:15:43.397Z,14.86
2023-04-09T17:18:12.130Z,14.46
2023-04-09T17:20:40.102Z,14.16
2023-04-09T17:23:09.607Z,14.52
2023-04-09T17:25:37.660Z,14.35
2023-04-09T17:28:06.012Z,14.61
2023-04-09T17:30:34.781Z,14.13
2023-04-09T17:33:03.020Z,14.10
2023-04-09T17:35:34.066Z,14.33
2023-04-09T17:38:02.366Z,13.96
2023-04-09T17:40:31.905Z,13.68
2023-04-09T17:43:00.318Z,13.97
2023-04-09T17:45:30.963Z,13.79
2023-04-09T17:47:59.090Z,13.87
2023-04-09T17:50:27.193Z,13.80
2023-04-09T17:52:55.240Z,13.73
2023-04-09T17:55:23.364Z,13.10
2023-04-09T17:57:53.078Z,13.13
2023-04-09T18:00:21.126Z,13.20
2023-04-09T18:02:52.481Z,13.11
2023-04-09T18:05:21.067Z,12.82
2023-04-09T18:07:49.249Z,12.92
2023-04-09T18:10:17.459Z,12.90
2023-04-09T18:12:47.821Z,12.73
2023-04-09T18:15:18.687Z,12.72
2023-04-09T18:17:47.254Z,12.55
2023-04-09T18:20:16.094Z,12.57
2023-04-09T18:22:44.257Z,12.68
2023-04-09T18:25:12.228Z,12.73
2023-04-09T18:27:40.311Z,12.55
2023-04-09T18:30:12.982Z,12.46
2023-04-09T18:32:49.116Z,12.48
2023-04-09T18:35:17.371Z,12.33
2023-04-09T18:37:48.024Z,12.50
2023-04-09T18:40:20.227Z,12.57
2023-04-09T18:42:52.578Z,12.30
2023-04-09T18:45:20.724Z,12.08
2023-04-09T18:47:50.490Z,11.94
2023-04-09T18:50:20.468Z,12.03
2023-04-09T18:52:50.822Z,12.01
2023-04-09T18:55:19.212Z,11.92
2023-04-09T18:57:47.241Z,11.82
2023-04-09T19:00:15.668Z,11.36
2023-04-09T19:02:46.206Z,11.73
2023-04-09T19:05:18.683Z,11.51
2023-04-09T19:07:46.735Z,11.57
2023-04-09T19:10:14.888Z,11.34
2023-04-09T19:12:48.341Z,11.64
2023-04-09T19:15:16.795Z,11.59
2023-04-09T19:17:45.000Z,11.39
2023-04-09T19:20:13.591Z,11.13
2023-04-09T19:22:46.733Z,11.22
2023-04-09T19:25:15.147Z,10.95
2023-04-09T19:27:43.289Z,10.84
2023-04-09T19:30:11.839Z,10.73
2023-04-09T19:32:41.228Z,10.72
2023-04-09T19:35:10.428Z,10.66
2023-04-09T19:37:47.215Z,10.70
2023-04-09T19:40:16.936Z,10.61
2023-04-09T19:42:47.032Z,10.38
2023-04-09T19:45:15.281Z,10.63
2023-04-09T19:47:43.380Z,10.63
2023-04-09T19:50:11.851Z,10.71
2023-04-09T19:52:41.392Z,10.37
2023-04-09T19:55:11.433Z,10.39
2023-04-09T19:57:40.651Z,10.61
2023-04-09T20:00:09.558Z,10.50
2023-04-09T20:02:41.512Z,10.49
2023-04-09T20:05:10.693Z,10.42
2023-04-09T20:07:41.086Z,10.21
2023-04-09T20:10:11.339Z,10.46
2023-04-09T20:12:39.363Z,10.27
2023-04-09T20:15:09.926Z,10.49
2023-04-09T20:17:38.446Z,10.68
2023-04-09T20:20:07.000Z,10.54
2023-04-09T20:22:35.081Z,10.57
2023-04-09T20:25:06.934Z,10.37
2023-04-09T20:27:37.454Z,10.39
2023-04-09T20:30:06.210Z,10.60
2023-04-09T20:32:35.356Z,10.50
2023-04-09T20:35:03.562Z,10.13
2023-04-09T20:37:34.146Z,10.38
2023-04-09T20:40:02.288Z,10.19
2023-04-09T20:42:30.711Z,10.71
2023-04-09T20:45:01.654Z,10.75
2023-04-09T20:47:30.089Z,10.58
2023-04-09T20:49:59.921Z,10.46
2023-04-09T20:52:28.825Z,10.50
2023-04-09T20:54:57.852Z,10.17
2023-04-09T20:57:26.143Z,10.23
2023-04-09T20:59:54.440Z,10.07
2023-04-09T21:02:23.998Z,10.11
2023-04-09T21:04:52.203Z,9.78
2023-04-09T21:07:20.300Z,9.62
2023-04-09T21:09:48.313Z,9.46
2023-04-09T21:12:16.418Z,10.09
2023-04-09T21:14:44.487Z,9.53
2023-04-09T21:17:12.525Z,9.55
2023-04-09T21:19:42.367Z,9.17
2023-04-09T21:22:13.396Z,9.67
2023-04-09T21:24:41.401Z,9.57
2023-04-09T21:27:09.379Z,9.50
2023-04-09T21:29:37.373Z,9.29
2023-04-09T21:32:05.488Z,9.23
2023-04-09T21:34:33.538Z,8.98
2023-04-09T21:37:04.340Z,9.41
2023-04-09T21:39:32.392Z,9.19
2023-04-09T21:42:00.407Z,9.42
2023-04-09T21:44:28.420Z,9.07
2023-04-09T21:46:56.472Z,8.70
2023-04-09T21:49:24.586Z,8.91
2023-04-09T21:51:52.847Z,8.84
2023-04-09T21:54:22.299Z,9.00
2023-04-09T21:56:50.478Z,8.93
2023-04-09T22:02:38.480Z,9.04
2023-04-09T22:05:06.994Z,9.14
2023-04-09T22:07:37.201Z,8.81
2023-04-09T22:10:05.721Z,8.78
2023-04-09T22:12:36.088Z,8.99
2023-04-09T22:15:04.544Z,9.00
2023-04-09T22:17:32.588Z,8.51
2023-04-09T22:20:02.628Z,8.66
2023-04-09T22:22:30.894Z,8.59
2023-04-09T22:24:58.961Z,8.27
2023-04-09T22:27:26.925Z,8.92
2023-04-09T22:29:55.001Z,8.47
2023-04-09T22:32:23.014Z,8.32
2023-04-09T22:34:50.982Z,7.79
2023-04-09T22:37:20.538Z,7.69
2023-04-09T22:39:48.711Z,7.72
2023-04-09T22:42:16.956Z,7.74
2023-04-09T22:44:45.006Z,7.46
2023-04-09T22:47:13.161Z,7.67
2023-04-09T22:49:41.164Z,7.80
2023-04-09T22:52:09.560Z,7.56
2023-04-09T22:54:39.023Z,7.64
2023-04-09T22:57:07.045Z,7.65
2023-04-09T22:59:40.352Z,7.43
2023-04-09T23:02:09.313Z,7.80
2023-04-09T23:04:37.554Z,7.87
2023-04-09T23:07:05.767Z,7.38
2023-04-09T23:09:33.835Z,7.43
2023-04-09T23:12:03.360Z,7.65
2023-04-09T23:14:31.385Z,7.38
2023-04-09T23:16:59.446Z,7.19
2023-04-09T23:19:27.445Z,7.52
2023-04-09T23:21:55.499Z,7.76
2023-04-09T23:24:23.631Z,7.59
2023-04-09T23:26:51.704Z,8.10
2023-04-09T23:29:21.482Z,7.34
2023-04-09T23:31:49.574Z,7.87
2023-04-09T23:34:17.681Z,8.01
2023-04-09T23:36:45.947Z,7.91
2023-04-09T23:39:13.985Z,8.03
2023-04-09T23:41:44.426Z,7.70
2023-04-09T23:44:12.516Z,7.68
2023-04-09T23:46:41.888Z,7.53
2023-04-09T23:49:09.852Z,7.37
2023-04-09T23:51:37.919Z,7.49
2023-04-09T23:54:05.987Z,7.27
2023-04-09T23:56:34.011Z,7.78
2023-04-09T23:59:02.123Z,7.50
